Latest Weather Observations for Swanbourne

IDW60901

Issued at 12:51 pm WST Wednesday 19 June 2019 (issued every 10 minutes, with the page automatically refreshed every 10 minutes)

About weather observations | Map of Perth area stations | Latest observations for Perth area | Other Formats
Station Details ID: 009215 Name: SWANBOURNE Lat: -31.96 Lon: 115.76 Height: 40.96 m
Data from the previous 72 hours. | See also: Recent months at Swanbourne
Date/Time
WST
Temp
°C
App
Temp
°C
Dew
Point
°C
Rel
Hum
%
Delta-T
°C
Wind Press
QNH
hPa
Press
MSL
hPa
Rain since
9am
mm
Dir  Spd
km/h
Gust
km/h
Spd
kts
Gust
kts
19/12:30pm 17.3 13.6 4.3 42 6.1 ENE 13 22 7 12 - - 0.0
19/12:00pm 16.7 13.2 5.3 47 5.5 ENE 13 26 7 14 - - 0.0
19/11:30am 16.0 12.3 4.7 47 5.3 ENE 13 20 7 11 - - 0.0
19/11:00am 15.3 11.7 5.0 50 4.9 ENE 13 22 7 12 - - 0.0
19/10:30am 13.9 9.9 5.0 55 4.2 ENE 15 24 8 13 - - 0.0
19/10:00am 12.6 8.8 6.0 64 3.1 ENE 15 22 8 12 - - 0.0
19/09:30am 11.1 7.8 6.3 72 2.3 E 13 19 7 10 - - 0.0
19/09:00am 9.4 5.7 6.5 82 1.3 ENE 15 20 8 11 - - 0.0
19/08:30am 7.9 4.9 7.5 97 0.2 ENE 13 17 7 9 - - 0.0
19/08:00am 6.6 2.9 6.3 98 0.1 E 15 17 8 9 - - 0.0
19/07:30am 6.0 2.6 5.7 98 0.1 E 13 17 7 9 - - 0.0
19/07:00am 5.3 2.1 5.0 98 0.1 E 11 15 6 8 - - 0.0
19/06:30am 5.0 1.4 4.9 99 0.0 ENE 13 13 7 7 - - 0.0
19/06:00am 5.0 1.8 4.9 99 0.0 ENE 11 13 6 7 - - 0.0
19/05:30am 5.1 1.9 5.0 99 0.0 ENE 11 13 6 7 - - 0.0
19/05:00am 4.8 1.5 4.7 99 0.0 ENE 11 13 6 7 - - 0.0
19/04:30am 4.9 1.6 4.8 99 0.0 ENE 11 13 6 7 - - 0.0
19/04:00am 5.6 2.5 5.5 99 0.0 E 11 13 6 7 - - 0.0
19/03:30am 6.2 3.2 6.1 99 0.0 E 11 13 6 7 - - 0.0
19/03:00am 6.8 3.9 6.7 99 0.0 E 11 13 6 7 - - 0.0
19/02:30am 7.0 4.2 6.9 99 0.0 E 11 13 6 7 - - 0.0
19/02:00am 7.2 4.4 6.9 98 0.1 E 11 13 6 7 - - 0.0
19/01:30am 7.6 4.9 7.3 98 0.1 E 11 13 6 7 - - 0.0
19/01:00am 8.2 6.0 7.9 98 0.1 E 9 11 5 6 - - 0.0
19/12:30am 8.0 5.7 7.6 97 0.2 E 9 11 5 6 - - 0.0
19/12:00am 8.3 6.1 8.0 98 0.1 E 9 11 5 6 - - 0.0
 
Date/Time
WST
Temp
°C
App
Temp
°C
Dew
Point
°C
Rel
Hum
%
Delta-T
°C
Wind Press
QNH
hPa
Press
MSL
hPa
Rain since
9am
mm
Dir  Spd
km/h
Gust
km/h
Spd
kts
Gust
kts
18/11:30pm 8.7 6.6 8.1 96 0.3 E 9 9 5 5 - - 0.0
18/11:00pm 8.7 6.2 6.5 86 1.0 E 9 11 5 6 - - 0.0
18/10:30pm 9.5 6.6 6.4 81 1.4 ENE 11 13 6 7 - - 0.0
18/10:00pm 9.7 7.1 6.1 78 1.7 ENE 9 11 5 6 - - 0.0
18/09:30pm 11.6 9.1 6.5 71 2.4 ESE 9 11 5 6 - - 0.0
18/09:00pm 11.9 9.4 6.6 70 2.5 ESE 9 9 5 5 - - 0.0
18/08:30pm 12.2 9.7 6.7 69 2.6 SE 9 11 5 6 - - 0.0
18/08:00pm 12.9 10.7 6.3 64 3.1 SSE 7 9 4 5 - - 0.0
18/07:30pm 12.8 10.6 6.2 64 3.1 SSE 7 9 4 5 - - 0.0
18/07:00pm 12.8 10.1 5.7 62 3.3 S 9 9 5 5 - - 0.0
18/06:30pm 12.9 10.1 5.3 60 3.5 S 9 9 5 5 - - 0.0
18/06:00pm 13.1 10.7 5.3 59 3.6 S 7 9 4 5 - - 0.0
18/05:30pm 13.6 11.1 5.0 56 4.0 S 7 9 4 5 - - 0.0
18/05:00pm 14.6 12.4 5.1 53 4.5 S 6 9 3 5 - - 0.0
18/04:30pm 15.7 13.2 5.0 49 5.1 SSW 7 11 4 6 - - 0.0
18/04:00pm 16.2 13.9 4.9 47 5.4 SSW 6 13 3 7 - - 0.0
18/03:30pm 16.4 14.0 4.1 44 5.7 SSE 6 9 3 5 - - 0.0
18/03:00pm 16.4 13.9 3.8 43 5.8 SSE 6 13 3 7 - - 0.0
18/02:30pm 17.4 15.0 4.4 42 6.2 N 6 9 3 5 - - 0.0
18/02:00pm 15.9 13.5 4.3 46 5.4 SE 6 9 3 5 - - 0.0
18/01:30pm 15.4 13.1 4.8 49 5.0 SE 6 7 3 4 - - 0.0
18/01:00pm 16.6 14.4 5.3 47 5.4 ENE 6 9 3 5 - - 0.0
18/12:30pm 15.7 13.2 4.7 48 5.2 SE 7 13 4 7 - - 0.0
18/12:00pm 15.6 13.3 5.5 51 4.8 SE 7 13 4 7 - - 0.0
18/11:30am 14.8 12.4 5.1 52 4.6 ESE 7 11 4 6 - - 0.0
18/11:00am 13.8 11.7 6.7 62 3.4 E 7 11 4 6 - - 0.0
18/10:30am 13.0 11.0 7.2 68 2.8 E 7 11 4 6 - - 0.0
18/10:00am 12.2 10.3 7.7 74 2.2 E 7 11 4 6 - - 0.0
18/09:30am 10.4 8.1 7.3 81 1.5 E 9 13 5 7 - - 0.0
18/09:00am 9.8 7.4 7.1 83 1.3 E 9 13 5 7 - - 0.2
18/08:30am 8.6 6.5 8.3 98 0.1 E 9 13 5 7 - - 0.2
18/08:00am 6.5 3.9 6.2 98 0.1 E 9 11 5 6 - - 0.2
18/07:30am 6.3 3.7 6.0 98 0.1 ESE 9 11 5 6 - - 0.0
18/07:00am 5.8 3.5 5.5 98 0.1 E 7 9 4 5 - - 0.0
18/06:30am 6.4 4.2 6.3 99 0.0 E 7 9 4 5 - - 0.0
18/06:00am 6.0 3.7 5.7 98 0.1 ENE 7 9 4 5 - - 0.0
18/05:30am 6.2 4.5 5.9 98 0.1 SE 4 4 2 2 - - 0.0
18/05:00am 6.5 4.5 6.2 98 0.1 ESE 6 11 3 6 - - 0.0
18/04:30am 6.7 3.8 6.4 98 0.1 E 11 15 6 8 - - 0.0
18/04:00am 6.2 3.2 6.1 99 0.0 E 11 13 6 7 - - 0.0
18/03:30am 6.7 3.8 6.4 98 0.1 E 11 13 6 7 - - 0.0
18/03:00am 6.5 3.5 6.2 98 0.1 E 11 13 6 7 - - 0.0
18/02:30am 7.0 4.1 6.7 98 0.1 E 11 11 6 6 - - 0.0
18/02:00am 7.4 5.0 7.1 98 0.1 E 9 11 5 6 - - 0.0
18/01:30am 7.3 4.9 7.0 98 0.1 E 9 11 5 6 - - 0.0
18/01:00am 7.8 5.5 7.5 98 0.1 E 9 11 5 6 - - 0.0
18/12:30am 8.3 6.1 7.9 97 0.2 E 9 11 5 6 - - 0.0
18/12:00am 9.0 6.9 8.4 96 0.3 E 9 11 5 6 - - 0.0
 
Date/Time
WST
Temp
°C
App
Temp
°C
Dew
Point
°C
Rel
Hum
%
Delta-T
°C
Wind Press
QNH
hPa
Press
MSL
hPa
Rain since
9am
mm
Dir  Spd
km/h
Gust
km/h
Spd
kts
Gust
kts
17/11:30pm 9.2 6.9 7.6 90 0.8 E 9 11 5 6 - - 0.0
17/11:00pm 10.0 7.7 7.3 83 1.3 E 9 9 5 5 - - 0.0
17/10:30pm 10.2 8.2 6.9 80 1.6 E 7 9 4 5 - - 0.0
17/10:00pm 10.6 8.6 6.9 78 1.8 E 7 9 4 5 - - 0.0
17/09:30pm 11.3 9.1 8.0 80 1.6 ESE 9 9 5 5 - - 0.0
17/09:00pm 12.0 10.2 8.1 77 1.9 ESE 7 9 4 5 - - 0.0
17/08:30pm 12.3 10.5 7.8 74 2.2 ESE 7 11 4 6 - - 0.0
17/08:00pm 12.5 10.9 7.8 73 2.3 ESE 6 7 3 4 - - 0.0
17/07:30pm 12.9 11.2 7.6 70 2.6 ESE 6 7 3 4 - - 0.0
17/07:00pm 12.7 10.8 6.5 66 3.0 ESE 6 9 3 5 - - 0.0
17/06:30pm 13.4 11.8 6.3 62 3.4 SSE 4 4 2 2 - - 0.0
17/06:00pm 13.4 11.5 6.5 63 3.3 SSE 6 6 3 3 - - 0.0
17/05:30pm 13.7 11.8 6.6 62 3.4 SE 6 6 3 3 - - 0.0
17/05:00pm 14.3 12.3 6.4 59 3.8 SE 6 6 3 3 - - 0.0
17/04:30pm 15.1 13.4 6.1 55 4.3 SE 4 9 2 5 - - 0.0
17/04:00pm 15.1 13.1 6.1 55 4.3 SSE 6 7 3 4 - - 0.0
17/03:30pm 15.2 13.4 7.0 58 4.0 SE 6 9 3 5 - - 0.0
17/03:00pm 15.6 13.5 6.6 55 4.4 SSE 7 11 4 6 - - 0.0
17/02:30pm 15.4 12.9 6.7 56 4.3 SE 9 13 5 7 - - 0.0
17/02:00pm 15.6 13.2 6.9 56 4.3 ESE 9 15 5 8 - - 0.0
17/01:30pm 15.7 12.8 6.7 55 4.4 SE 11 15 6 8 - - 0.0
17/01:00pm 15.9 12.7 6.9 55 4.4 E 13 17 7 9 - - 0.0
17/12:30pm 15.9 12.6 6.6 54 4.6 E 13 20 7 11 - - 0.0
17/12:00pm 15.5 11.8 6.2 54 4.5 E 15 20 8 11 - - 0.0
17/11:30am 15.0 12.0 7.5 61 3.7 ESE 13 19 7 10 - - 0.0
17/11:00am 14.2 10.8 7.5 64 3.3 ESE 15 22 8 12 - - 0.0
17/10:30am 13.7 10.3 7.7 67 3.0 ESE 15 22 8 12 - - 0.0
17/10:00am 12.9 9.8 7.4 69 2.7 ESE 13 19 7 10 - - 0.0
17/09:30am 12.4 9.6 8.7 78 1.8 ESE 13 19 7 10 - - 0.0
17/09:00am 11.9 9.9 11.6 98 0.2 ESE 13 19 7 10 - - 0.8
17/08:30am 11.4 9.7 11.2 99 0.1 E 11 19 6 10 - - 0.8
17/08:00am 11.7 10.9 11.7 100 0.0 ESE 7 11 4 6 - - 0.8
17/07:30am 11.6 10.4 11.6 100 0.0 ESE 9 11 5 6 - - 0.8
17/07:00am 11.6 10.8 11.6 100 0.0 ESE 7 11 4 6 - - 0.8
17/06:30am 11.5 10.6 11.5 100 0.0 E 7 9 4 5 - - 0.8
17/06:00am 11.6 10.8 11.6 100 0.0 ESE 7 9 4 5 - - 0.8
17/05:30am 11.4 10.5 11.4 100 0.0 SE 7 11 4 6 - - 0.8
17/05:00am 11.2 9.9 11.2 100 0.0 SE 9 11 5 6 - - 0.8
17/04:30am 11.4 10.1 11.4 100 0.0 SE 9 13 5 7 - - 0.8
17/04:00am 11.6 10.8 11.6 100 0.0 SE 7 11 4 6 - - 0.8
17/03:30am 12.0 11.3 12.0 100 0.0 SE 7 13 4 7 - - 0.8
17/03:00am 12.6 11.7 12.6 100 0.0 SE 9 15 5 8 - - 0.8
17/02:30am 13.0 11.5 13.0 100 0.0 SSE 13 22 7 12 - - 0.8
17/02:00am 12.9 12.7 12.9 100 0.0 SE 6 9 3 5 - - 0.8
17/01:30am 12.8 12.5 12.8 100 0.0 SSE 6 7 3 4 - - 0.8
17/01:00am 12.4 11.9 12.2 99 0.1 E 6 9 3 5 - - 0.8
17/12:30am 12.4 11.4 12.2 99 0.1 E 9 13 5 7 - - 0.8
17/12:00am 12.6 11.6 12.4 99 0.1 E 9 11 5 6 - - 0.8
 
Date/Time
WST
Temp
°C
App
Temp
°C
Dew
Point
°C
Rel
Hum
%
Delta-T
°C
Wind Press
QNH
hPa
Press
MSL
hPa
Rain since
9am
mm
Dir  Spd
km/h
Gust
km/h
Spd
kts
Gust
kts
16/11:30pm 12.7 12.3 12.4 98 0.2 ESE 6 9 3 5 - - 0.4
16/11:00pm 12.9 12.0 12.6 98 0.2 ENE 9 11 5 6 - - 0.4
16/10:30pm 12.7 11.7 12.4 98 0.2 ENE 9 9 5 5 - - 0.4
16/10:00pm 13.1 12.0 12.0 93 0.6 E 9 11 5 6 - - 0.4
16/09:30pm 13.5 12.6 11.4 87 1.1 E 7 11 4 6 - - 0.4
16/09:00pm 14.2 13.3 11.2 82 1.6 SE 7 9 4 5 - - 0.4
16/08:30pm 14.6 13.8 11.0 79 1.9 SE 6 7 3 4 - - 0.4
16/08:00pm 14.9 13.9 10.9 77 2.1 SSE 7 11 4 6 - - 0.4
16/07:30pm 14.8 13.3 10.6 76 2.2 SSE 9 11 5 6 - - 0.4
16/07:00pm 15.3 13.7 10.1 71 2.7 S 9 15 5 8 - - 0.4
16/06:30pm 15.9 13.2 10.4 70 2.9 S 15 22 8 12 - - 0.4
16/06:00pm 16.4 13.7 11.8 74 2.5 SSW 17 24 9 13 - - 0.4
16/05:30pm 16.3 13.6 11.7 74 2.5 SW 17 26 9 14 - - 0.4
16/05:00pm 16.8 14.6 12.1 74 2.6 SW 15 24 8 13 - - 0.4
16/04:30pm 17.5 15.5 12.6 73 2.7 SW 15 24 8 13 - - 0.4
16/04:00pm 17.0 15.2 13.3 79 2.1 SW 15 22 8 12 - - 0.4
16/03:30pm 16.4 16.8 15.3 93 0.6 S 7 13 4 7 - - 0.4
16/03:00pm 16.7 14.1 14.9 89 1.0 SW 22 32 12 17 - - 0.4
16/02:30pm 17.7 15.7 12.6 72 2.8 WSW 15 20 8 11 - - 0.4
16/02:00pm 17.4 16.4 14.7 84 1.6 WSW 13 22 7 12 - - 0.4
16/01:30pm 16.4 16.7 16.1 98 0.2 W 9 19 5 10 - - 0.4
16/01:00pm 16.9 16.8 14.9 88 1.2 NNW 9 13 5 7 - - 0.0

Latest Capital City Observations: Canberra | Sydney | Melbourne | Brisbane | Adelaide | Perth | Hobart | Darwin

Other formats

Comma delimited format used in spreadsheet applications
http://www.bom.gov.au/fwo/IDW60901/IDW60901.94614.axf

JavaScript Object Notation format (JSON) in row-major order
http://www.bom.gov.au/fwo/IDW60901/IDW60901.94614.json

Data quality

Most of these data are generated automatically and are frequently updated. Quality checks on data are not normally performed. It is possible for incorrect values to appear. Refer to information at About Latest Weather Observations and please check the disclaimer before using these data.